Ana Sayfa
METAR-TAF:

METAR-TAF

Havaalanları :

Newark-Heath Airport

Newark, Ohio, Amerika Birleşik Devletleri

Enlem: 40-01-22N, Boylam: 082-27-45W, yükseklik: 269 m

Güncel hava durumu gözlemi

Rapor saat 23:54 UTC de 49 dakika önce yapıldı.
Rüzgar kuzeydan 6 kt
Sıcaklık 24°C
Nem 61%
Basınç 1018 hPa
Görüş mesafesi: 16.1 km
7500 ft yükseklikte parçalı bulutlu

METAR: KVTA 112354Z AUTO 36006KT 10SM SCT075 24/16 A3006 RMK AO2 SLP173 T02390156 10278 20239 53004

Saat: 20:43 (00:43 UTC)


TAF: eksik

4.000'den fazla havaalanı için hava durumu gözlemleri ve tahminleri (METAR ve TAF raporları).

Kullanılabilir istasyonlar harita üzerinde sarı ve kırmızı noktalarla gösterilir.

İstasyonun adını görmek için fareyi noktanın üzerinde gezdirin.

Sonrasında hava gözlem ve tahminlerini görmek için tıklayın.

Haritayı değiştirmek için: yaklaştırmak için siyah artı işaretli yeşil düğmeye ve uzaklaştırmak için de eksi işaretli düğmeye hızla tıklayın; bitişik haritalar için yeşil okları kullanın.


METAR-TAF: